createdAt,value
2018-08-04T00:00:53.867Z,22.60
2018-08-04T00:03:22.532Z,22.50
2018-08-04T00:05:51.155Z,22.50
2018-08-04T00:08:19.696Z,22.50
2018-08-04T00:10:48.320Z,22.50
2018-08-04T00:13:16.977Z,22.40
2018-08-04T00:15:45.535Z,22.30
2018-08-04T00:18:14.144Z,22.30
2018-08-04T00:20:42.932Z,22.30
2018-08-04T00:23:11.555Z,22.30
2018-08-04T00:25:40.117Z,22.30
2018-08-04T00:28:08.803Z,22.30
2018-08-04T00:30:37.471Z,22.20
2018-08-04T00:33:06.173Z,22.10
2018-08-04T00:35:34.749Z,22.00
2018-08-04T00:38:03.293Z,21.90
2018-08-04T00:40:31.858Z,21.90
2018-08-04T00:43:00.527Z,21.80
2018-08-04T00:45:29.192Z,21.80
2018-08-04T00:47:57.765Z,21.80
2018-08-04T00:50:26.427Z,21.80
2018-08-04T00:52:55.003Z,21.80
2018-08-04T00:55:23.651Z,21.70
2018-08-04T00:57:52.263Z,21.70
2018-08-04T01:00:20.917Z,21.60
2018-08-04T01:02:49.472Z,21.60
2018-08-04T01:05:18.129Z,21.60
2018-08-04T01:07:46.785Z,21.60
2018-08-04T01:10:15.467Z,21.50
2018-08-04T01:12:44.040Z,21.40
2018-08-04T01:15:12.691Z,21.40
2018-08-04T01:17:41.401Z,21.40
2018-08-04T01:20:10.022Z,21.30
2018-08-04T01:22:38.677Z,21.30
2018-08-04T01:25:07.908Z,21.30
2018-08-04T01:27:36.608Z,21.20
2018-08-04T01:30:05.994Z,21.10
2018-08-04T01:32:34.747Z,21.10
2018-08-04T01:35:03.497Z,21.20
2018-08-04T01:37:32.152Z,21.20
2018-08-04T01:40:00.919Z,21.20
2018-08-04T01:42:29.490Z,21.20
2018-08-04T01:44:58.184Z,21.20
2018-08-04T01:47:26.875Z,21.10
2018-08-04T01:49:55.482Z,21.10
2018-08-04T01:52:24.165Z,21.10
2018-08-04T01:54:53.277Z,21.10
2018-08-04T01:57:21.875Z,21.10
2018-08-04T01:59:50.581Z,21.10
2018-08-04T02:02:19.116Z,21.10
2018-08-04T02:04:47.791Z,21.10
2018-08-04T02:07:16.531Z,21.00
2018-08-04T02:09:45.080Z,21.00
2018-08-04T02:12:13.743Z,20.90
2018-08-04T02:14:42.362Z,20.90
2018-08-04T02:17:11.671Z,20.80
2018-08-04T02:19:40.337Z,20.70
2018-08-04T02:22:08.980Z,20.70
2018-08-04T02:24:37.539Z,20.60
2018-08-04T02:27:06.252Z,20.50
2018-08-04T02:29:34.937Z,20.50
2018-08-04T02:32:03.714Z,20.50
2018-08-04T02:34:32.417Z,20.40
2018-08-04T02:37:01.056Z,20.40
2018-08-04T02:39:29.782Z,20.40
2018-08-04T02:41:58.548Z,20.30
2018-08-04T02:44:27.221Z,20.30
2018-08-04T02:46:55.990Z,20.20
2018-08-04T02:49:24.629Z,20.20
2018-08-04T02:51:53.417Z,20.20
2018-08-04T02:54:22.068Z,20.30
2018-08-04T02:56:50.723Z,20.30
2018-08-04T02:59:19.351Z,20.40
2018-08-04T03:01:47.974Z,20.40
2018-08-04T03:04:16.604Z,20.40
2018-08-04T03:06:45.201Z,20.40
2018-08-04T03:09:13.881Z,20.40
2018-08-04T03:11:42.519Z,20.40
2018-08-04T03:14:11.163Z,20.40
2018-08-04T03:16:39.919Z,20.40
2018-08-04T03:19:08.695Z,20.20
2018-08-04T03:21:37.365Z,20.00
2018-08-04T03:24:05.993Z,19.90
2018-08-04T03:26:34.678Z,19.70
2018-08-04T03:29:03.444Z,19.60
2018-08-04T03:31:32.078Z,19.60
2018-08-04T03:34:00.747Z,19.50
2018-08-04T03:36:29.358Z,19.50
2018-08-04T03:38:57.981Z,19.50
2018-08-04T03:41:26.687Z,19.50
2018-08-04T03:43:55.367Z,19.50
2018-08-04T03:46:24.053Z,19.60
2018-08-04T03:48:52.852Z,19.60
2018-08-04T03:51:21.608Z,19.60
2018-08-04T03:53:50.215Z,19.60
2018-08-04T03:56:18.825Z,19.50
2018-08-04T03:58:47.514Z,19.40
2018-08-04T04:01:16.089Z,19.40
2018-08-04T04:03:44.848Z,19.30
2018-08-04T04:06:13.569Z,19.30
2018-08-04T04:08:42.251Z,19.30
2018-08-04T04:11:10.905Z,19.20
2018-08-04T04:13:39.645Z,19.30
2018-08-04T04:16:08.400Z,19.30
2018-08-04T04:18:37.056Z,19.40
2018-08-04T04:21:05.762Z,19.40
2018-08-04T04:23:34.430Z,19.50
2018-08-04T04:26:03.194Z,19.50
2018-08-04T04:28:31.985Z,19.50
2018-08-04T04:31:00.717Z,19.50
2018-08-04T04:33:29.503Z,19.50
2018-08-04T04:35:58.125Z,19.50
2018-08-04T04:38:26.843Z,19.60
2018-08-04T04:40:55.504Z,19.60
2018-08-04T04:43:24.229Z,19.60
2018-08-04T04:45:52.898Z,19.70
2018-08-04T04:48:21.579Z,19.80
2018-08-04T04:50:50.256Z,19.90
2018-08-04T04:53:19.038Z,20.00
2018-08-04T04:55:47.672Z,20.00
2018-08-04T04:58:16.273Z,20.10
2018-08-04T05:00:45.030Z,20.10
2018-08-04T05:03:13.677Z,20.20
2018-08-04T05:05:42.374Z,20.30
2018-08-04T05:08:11.044Z,20.50
2018-08-04T05:10:39.681Z,20.60
2018-08-04T05:13:08.570Z,20.70
2018-08-04T05:15:37.221Z,20.80
2018-08-04T05:18:05.990Z,21.00
2018-08-04T05:20:34.627Z,21.10
2018-08-04T05:23:03.318Z,21.10
2018-08-04T05:25:32.042Z,21.20
2018-08-04T05:28:00.817Z,21.20
2018-08-04T05:30:29.469Z,21.40
2018-08-04T05:32:58.148Z,21.50
2018-08-04T05:35:26.830Z,21.60
2018-08-04T05:37:55.492Z,21.70
2018-08-04T05:40:24.093Z,21.70
2018-08-04T05:42:52.770Z,21.80
2018-08-04T05:45:21.549Z,21.90
2018-08-04T05:47:50.229Z,21.90
2018-08-04T05:50:19.500Z,22.00
2018-08-04T05:52:48.245Z,22.10
2018-08-04T05:55:16.895Z,22.10
2018-08-04T05:57:45.589Z,22.10
2018-08-04T06:00:14.324Z,22.20
2018-08-04T06:02:43.019Z,22.20
2018-08-04T06:05:11.764Z,22.20
2018-08-04T06:07:40.393Z,22.20
2018-08-04T06:10:10.438Z,22.20
2018-08-04T06:12:39.402Z,22.30
2018-08-04T06:15:08.308Z,22.40
2018-08-04T06:17:37.121Z,22.50
2018-08-04T06:20:06.228Z,22.70
2018-08-04T06:22:35.017Z,22.90
2018-08-04T06:25:03.745Z,23.10
2018-08-04T06:27:32.409Z,23.20
2018-08-04T06:30:01.064Z,23.30
2018-08-04T06:32:29.656Z,23.50
2018-08-04T06:34:58.220Z,23.70
2018-08-04T06:37:26.887Z,23.70
2018-08-04T06:39:55.474Z,23.80
2018-08-04T06:42:24.061Z,23.80
2018-08-04T06:44:52.627Z,23.90
2018-08-04T06:47:21.451Z,24.00
2018-08-04T06:49:50.122Z,24.20
2018-08-04T06:52:18.759Z,24.40
2018-08-04T06:54:47.441Z,24.60
2018-08-04T06:57:16.099Z,24.80
2018-08-04T06:59:44.782Z,25.00
2018-08-04T07:02:13.361Z,25.20
2018-08-04T07:04:44.061Z,25.50
2018-08-04T07:07:12.796Z,25.80
2018-08-04T07:09:41.453Z,26.00
2018-08-04T07:12:10.002Z,26.20
2018-08-04T07:14:38.649Z,26.30
2018-08-04T07:17:07.265Z,26.50
2018-08-04T07:19:35.875Z,26.70
2018-08-04T07:22:04.563Z,27.00
2018-08-04T07:24:33.195Z,27.30
2018-08-04T07:27:01.803Z,27.60
2018-08-04T07:29:30.437Z,28.00
2018-08-04T07:31:59.085Z,28.30
2018-08-04T07:34:27.676Z,28.60
2018-08-04T07:36:56.463Z,28.70
2018-08-04T07:39:25.027Z,28.80
2018-08-04T07:41:53.645Z,28.90
2018-08-04T07:44:22.297Z,29.00
2018-08-04T07:46:50.981Z,29.10
2018-08-04T07:49:19.746Z,29.10
2018-08-04T07:51:48.392Z,29.30
2018-08-04T07:54:17.028Z,29.70
2018-08-04T07:56:45.683Z,30.10
2018-08-04T07:59:14.265Z,30.40
2018-08-04T08:01:42.875Z,30.70
2018-08-04T08:04:11.457Z,30.80
2018-08-04T08:06:40.196Z,31.00
2018-08-04T08:09:09.317Z,31.10
2018-08-04T08:11:37.917Z,31.40
2018-08-04T08:14:06.489Z,31.90
2018-08-04T08:16:35.120Z,32.30
2018-08-04T08:19:03.689Z,32.50
2018-08-04T08:21:32.296Z,32.80
2018-08-04T08:24:00.859Z,33.10
2018-08-04T08:26:29.387Z,33.40
2018-08-04T08:28:58.053Z,33.40
2018-08-04T08:31:26.839Z,33.40
2018-08-04T08:33:55.451Z,33.50
2018-08-04T08:36:24.061Z,33.50
2018-08-04T08:38:52.695Z,33.50
2018-08-04T08:41:21.294Z,33.80
2018-08-04T08:43:50.209Z,34.00
2018-08-04T08:46:39.031Z,33.90
2018-08-04T08:49:07.704Z,33.70
2018-08-04T08:51:36.491Z,33.60
2018-08-04T08:54:05.203Z,33.90
2018-08-04T08:56:33.763Z,34.20
2018-08-04T08:59:02.569Z,34.40
2018-08-04T09:01:43.003Z,34.50
2018-08-04T09:04:11.559Z,34.70
2018-08-04T09:06:40.153Z,35.00
2018-08-04T09:09:10.046Z,35.50
2018-08-04T09:11:38.655Z,35.90
2018-08-04T09:14:07.333Z,36.20
2018-08-04T09:16:41.134Z,36.10
2018-08-04T09:19:09.774Z,36.00
2018-08-04T09:21:38.420Z,35.90
2018-08-04T09:24:07.105Z,36.20
2018-08-04T09:26:35.653Z,36.50
2018-08-04T09:29:04.277Z,36.90
2018-08-04T09:31:32.891Z,36.90
2018-08-04T09:34:01.484Z,36.70
2018-08-04T09:36:30.063Z,36.80
2018-08-04T09:38:58.676Z,37.40
2018-08-04T09:41:27.627Z,38.00
2018-08-04T09:43:56.391Z,38.30
2018-08-04T09:46:25.047Z,38.60
2018-08-04T09:48:53.697Z,38.70
2018-08-04T09:51:22.404Z,38.80
2018-08-04T09:53:51.154Z,38.50
2018-08-04T09:56:19.905Z,38.50
2018-08-04T09:58:54.169Z,38.80
2018-08-04T10:01:28.368Z,39.10
2018-08-04T10:03:57.173Z,39.40
2018-08-04T10:06:25.850Z,39.50
2018-08-04T10:08:54.693Z,39.70
2018-08-04T10:11:23.290Z,40.40
2018-08-04T10:13:51.915Z,40.90
2018-08-04T10:16:20.474Z,41.30
2018-08-04T10:18:49.061Z,41.60
2018-08-04T10:21:17.647Z,41.90
2018-08-04T10:23:46.549Z,42.10
2018-08-04T10:26:15.355Z,41.80
2018-08-04T10:28:44.031Z,41.40
2018-08-04T10:31:12.609Z,41.30
2018-08-04T10:33:41.411Z,41.30
2018-08-04T10:36:10.150Z,41.60
2018-08-04T10:38:38.805Z,41.90
2018-08-04T10:41:07.405Z,42.00
2018-08-04T10:43:36.104Z,41.80
2018-08-04T10:46:04.738Z,41.70
2018-08-04T10:48:33.516Z,42.10
2018-08-04T10:51:02.199Z,42.60
2018-08-04T10:53:30.790Z,42.80
2018-08-04T10:55:59.471Z,43.00
2018-08-04T10:58:28.264Z,43.00
2018-08-04T11:00:56.906Z,42.80
2018-08-04T11:03:25.829Z,42.30
2018-08-04T11:05:54.927Z,42.30
2018-08-04T11:08:23.480Z,42.20
2018-08-04T11:10:52.010Z,41.90
2018-08-04T11:13:20.607Z,41.90
2018-08-04T11:15:49.137Z,41.00
2018-08-04T11:18:17.765Z,40.20
2018-08-04T11:20:46.384Z,40.20
2018-08-04T11:23:14.977Z,40.60
2018-08-04T11:25:43.487Z,40.90
2018-08-04T11:28:12.048Z,40.90
2018-08-04T11:30:40.663Z,41.10
2018-08-04T11:33:09.245Z,41.30
2018-08-04T11:35:38.936Z,41.50
2018-08-04T11:38:07.528Z,41.80
2018-08-04T11:40:36.149Z,42.00
2018-08-04T11:43:04.753Z,42.10
2018-08-04T11:45:39.804Z,42.20
2018-08-04T11:48:08.354Z,42.40
2018-08-04T11:50:36.931Z,42.30
2018-08-04T11:53:05.978Z,42.60
2018-08-04T11:55:34.709Z,43.00
2018-08-04T11:58:03.297Z,43.60
2018-08-04T12:00:31.901Z,43.70
2018-08-04T12:03:00.500Z,43.40
2018-08-04T12:05:29.125Z,43.20
2018-08-04T12:07:58.465Z,42.70
2018-08-04T12:10:27.069Z,42.20
2018-08-04T12:12:55.792Z,41.70
2018-08-04T12:15:24.441Z,41.10
2018-08-04T12:17:52.939Z,40.80
2018-08-04T12:20:21.491Z,40.10
2018-08-04T12:22:50.046Z,39.70
2018-08-04T12:25:18.611Z,39.70
2018-08-04T12:27:47.191Z,40.30
2018-08-04T12:30:15.824Z,41.00
2018-08-04T12:32:44.445Z,41.60
2018-08-04T12:35:13.024Z,42.20
2018-08-04T12:37:41.649Z,42.20
2018-08-04T12:40:10.345Z,41.80
2018-08-04T12:42:38.948Z,41.70
2018-08-04T12:45:07.929Z,41.90
2018-08-04T12:47:36.486Z,42.20
2018-08-04T12:50:05.539Z,42.60
2018-08-04T12:52:34.167Z,42.30
2018-08-04T12:55:02.729Z,42.30
2018-08-04T12:57:31.387Z,42.70
2018-08-04T13:00:00.011Z,43.30
2018-08-04T13:02:28.750Z,43.80
2018-08-04T13:04:57.288Z,44.10
2018-08-04T13:07:25.877Z,44.50
2018-08-04T13:09:54.705Z,44.90
2018-08-04T13:12:23.295Z,45.40
2018-08-04T13:14:52.009Z,45.70
2018-08-04T13:17:20.975Z,46.40
2018-08-04T13:19:49.758Z,46.90
2018-08-04T13:22:18.360Z,47.10
2018-08-04T13:24:46.998Z,47.70
2018-08-04T13:27:15.599Z,48.00
2018-08-04T13:29:44.219Z,47.40
2018-08-04T13:32:12.794Z,46.20
2018-08-04T13:34:41.404Z,45.30
2018-08-04T13:37:10.121Z,44.80
2018-08-04T13:39:38.695Z,45.20
2018-08-04T13:42:07.493Z,44.90
2018-08-04T13:44:36.104Z,44.50
2018-08-04T13:47:04.744Z,45.50
2018-08-04T13:49:33.380Z,47.20
2018-08-04T13:52:01.872Z,48.40
2018-08-04T13:54:30.467Z,49.20
2018-08-04T13:56:59.118Z,50.10
2018-08-04T13:59:27.812Z,50.80
2018-08-04T14:01:56.406Z,51.30
2018-08-04T14:04:25.030Z,50.70
2018-08-04T14:06:53.578Z,50.50
2018-08-04T14:09:22.135Z,51.00
2018-08-04T14:11:50.748Z,51.40
2018-08-04T14:14:19.299Z,52.10
2018-08-04T14:16:47.975Z,52.50
2018-08-04T14:19:16.557Z,51.60
2018-08-04T14:21:45.177Z,50.80
2018-08-04T14:24:13.855Z,50.90
2018-08-04T14:26:42.575Z,51.50
2018-08-04T14:29:11.472Z,51.80
2018-08-04T14:31:40.339Z,51.70
2018-08-04T14:34:08.974Z,50.80
2018-08-04T14:36:37.569Z,49.10
2018-08-04T14:39:09.047Z,47.60
2018-08-04T14:41:37.708Z,48.10
2018-08-04T14:44:06.382Z,49.50
2018-08-04T14:46:35.053Z,50.70
2018-08-04T14:49:03.723Z,51.10
2018-08-04T14:51:32.466Z,50.50
2018-08-04T14:54:01.266Z,50.00
2018-08-04T14:56:30.904Z,49.70
2018-08-04T14:58:59.526Z,48.90
2018-08-04T15:01:28.091Z,47.40
2018-08-04T15:03:56.711Z,46.40
2018-08-04T15:06:25.280Z,45.20
2018-08-04T15:08:53.829Z,44.10
2018-08-04T15:11:22.517Z,42.60
2018-08-04T15:13:51.140Z,41.20
2018-08-04T15:16:19.720Z,39.70
2018-08-04T15:18:48.359Z,39.20
2018-08-04T15:21:16.976Z,40.10
2018-08-04T15:23:45.545Z,42.10
2018-08-04T15:26:14.100Z,43.80
2018-08-04T15:28:42.973Z,45.30
2018-08-04T15:31:11.507Z,45.90
2018-08-04T15:33:40.107Z,46.30
2018-08-04T15:36:08.701Z,46.10
2018-08-04T15:38:55.239Z,45.60
2018-08-04T15:41:23.781Z,45.30
2018-08-04T15:43:52.356Z,45.90
2018-08-04T15:46:20.940Z,47.00
2018-08-04T15:48:54.359Z,48.00
2018-08-04T15:51:22.922Z,48.60
2018-08-04T15:53:51.536Z,49.20
2018-08-04T15:56:20.103Z,48.60
2018-08-04T15:58:48.723Z,48.00
2018-08-04T16:01:17.273Z,48.00
2018-08-04T16:03:45.931Z,48.30
2018-08-04T16:06:14.525Z,48.70
2018-08-04T16:08:43.198Z,49.10
2018-08-04T16:14:23.433Z,49.30
2018-08-04T16:16:52.101Z,49.00
2018-08-04T16:19:20.743Z,49.40
2018-08-04T16:21:49.402Z,49.40
2018-08-04T16:24:18.024Z,49.40
2018-08-04T16:26:47.022Z,49.60
2018-08-04T16:29:15.754Z,49.00
2018-08-04T16:31:44.395Z,48.10
2018-08-04T16:34:12.909Z,47.10
2018-08-04T16:36:41.418Z,46.80
2018-08-04T16:39:10.681Z,46.60
2018-08-04T16:41:39.316Z,46.40
2018-08-04T16:44:07.904Z,45.90
2018-08-04T16:46:36.505Z,45.80
2018-08-04T16:49:05.115Z,46.10
2018-08-04T16:51:33.640Z,46.40
2018-08-04T16:56:55.160Z,46.70
2018-08-04T16:59:23.804Z,46.60
2018-08-04T17:01:52.339Z,46.50
2018-08-04T17:04:20.881Z,46.50
2018-08-04T17:06:49.415Z,46.40
2018-08-04T17:09:17.972Z,46.10
2018-08-04T17:11:46.527Z,45.90
2018-08-04T17:14:15.167Z,45.70
2018-08-04T17:16:43.695Z,45.70
2018-08-04T17:19:12.233Z,45.50
2018-08-04T17:21:40.753Z,45.30
2018-08-04T17:24:09.323Z,45.10
2018-08-04T17:26:37.941Z,44.70
2018-08-04T17:29:06.555Z,44.30
2018-08-04T17:31:35.121Z,44.00
2018-08-04T17:34:03.785Z,43.60
2018-08-04T17:36:32.351Z,43.20
2018-08-04T17:39:01.001Z,42.90
2018-08-04T17:41:29.638Z,42.60
2018-08-04T17:43:58.265Z,42.50
2018-08-04T17:46:26.891Z,42.30
2018-08-04T17:48:55.510Z,42.00
2018-08-04T17:51:24.174Z,41.50
2018-08-04T17:53:52.759Z,41.10
2018-08-04T17:56:21.332Z,40.80
2018-08-04T17:58:50.132Z,40.40
2018-08-04T18:01:18.794Z,40.00
2018-08-04T18:03:47.536Z,39.70
2018-08-04T18:06:16.197Z,39.40
2018-08-04T18:08:44.827Z,39.00
2018-08-04T18:11:13.538Z,38.70
2018-08-04T18:13:42.166Z,38.20
2018-08-04T18:16:17.074Z,37.70
2018-08-04T18:18:45.727Z,37.20
2018-08-04T18:21:14.355Z,36.70
2018-08-04T18:23:42.915Z,36.20
2018-08-04T18:26:11.555Z,35.90
2018-08-04T18:28:40.132Z,35.60
2018-08-04T18:31:08.715Z,35.30
2018-08-04T18:33:37.342Z,35.00
2018-08-04T18:36:06.659Z,34.70
2018-08-04T18:38:35.275Z,34.50
2018-08-04T18:41:03.905Z,34.30
2018-08-04T18:43:32.507Z,34.20
2018-08-04T18:46:01.139Z,33.90
2018-08-04T18:48:29.822Z,33.80
2018-08-04T18:50:58.457Z,33.60
2018-08-04T18:53:27.119Z,33.40
2018-08-04T18:55:55.845Z,33.10
2018-08-04T18:58:24.477Z,32.80
2018-08-04T19:00:53.111Z,32.60
2018-08-04T19:03:21.729Z,32.40
2018-08-04T19:05:50.370Z,32.20
2018-08-04T19:08:18.969Z,32.00
2018-08-04T19:10:47.642Z,31.90
2018-08-04T19:13:16.298Z,31.60
2018-08-04T19:15:45.045Z,31.40
2018-08-04T19:18:13.644Z,31.20
2018-08-04T19:20:42.316Z,31.00
2018-08-04T19:23:10.980Z,30.80
2018-08-04T19:25:39.784Z,30.70
2018-08-04T19:28:08.485Z,30.50
2018-08-04T19:30:37.094Z,30.40
2018-08-04T19:33:05.760Z,30.30
2018-08-04T19:35:34.391Z,30.30
2018-08-04T19:38:02.960Z,30.20
2018-08-04T19:40:31.521Z,30.10
2018-08-04T19:43:00.940Z,29.90
2018-08-04T19:45:29.582Z,29.80
2018-08-04T19:47:58.212Z,29.70
2018-08-04T19:50:26.889Z,29.50
2018-08-04T19:52:55.481Z,29.40
2018-08-04T19:55:24.081Z,29.30
2018-08-04T19:57:52.711Z,29.20
2018-08-04T20:00:21.349Z,29.10
2018-08-04T20:02:49.987Z,29.00
2018-08-04T20:05:18.565Z,28.90
2018-08-04T20:07:47.177Z,28.80
2018-08-04T20:10:15.728Z,28.70
2018-08-04T20:12:44.439Z,28.60
2018-08-04T20:15:13.027Z,28.40
2018-08-04T20:17:41.643Z,28.10
2018-08-04T20:20:10.280Z,27.80
2018-08-04T20:22:38.919Z,27.50
2018-08-04T20:25:07.666Z,27.30
2018-08-04T20:27:36.317Z,27.20
2018-08-04T20:30:05.013Z,27.10
2018-08-04T20:32:33.605Z,27.20
2018-08-04T20:35:02.303Z,27.20
2018-08-04T20:37:30.919Z,27.20
2018-08-04T20:39:59.519Z,27.20
2018-08-04T20:42:28.174Z,26.90
2018-08-04T20:44:56.705Z,26.50
2018-08-04T20:47:25.380Z,26.30
2018-08-04T20:49:54.049Z,26.30
2018-08-04T20:52:23.060Z,26.30
2018-08-04T20:54:51.637Z,26.40
2018-08-04T20:57:20.279Z,26.40
2018-08-04T20:59:48.891Z,26.40
2018-08-04T21:02:17.520Z,26.40
2018-08-04T21:04:46.175Z,26.40
2018-08-04T21:07:14.780Z,26.30
2018-08-04T21:09:43.373Z,26.30
2018-08-04T21:12:12.054Z,26.30
2018-08-04T21:14:40.631Z,26.20
2018-08-04T21:17:09.354Z,26.20
2018-08-04T21:19:37.964Z,26.10
2018-08-04T21:22:06.856Z,26.00
2018-08-04T21:24:35.449Z,25.90
2018-08-04T21:27:04.175Z,25.70
2018-08-04T21:29:32.870Z,25.60
2018-08-04T21:32:01.531Z,25.60
2018-08-04T21:34:30.088Z,25.60
2018-08-04T21:36:58.748Z,25.60
2018-08-04T21:39:27.462Z,25.50
2018-08-04T21:41:56.147Z,25.50
2018-08-04T21:44:24.870Z,25.40
2018-08-04T21:46:53.444Z,25.40
2018-08-04T21:49:22.113Z,25.30
2018-08-04T21:51:51.311Z,25.20
2018-08-04T21:54:20.390Z,25.10
2018-08-04T21:56:49.153Z,25.10
2018-08-04T21:59:17.921Z,25.10
2018-08-04T22:01:51.936Z,25.00
2018-08-04T22:04:20.573Z,25.00
2018-08-04T22:07:58.969Z,24.90
2018-08-04T22:10:28.083Z,24.90
2018-08-04T22:12:57.249Z,24.80
2018-08-04T22:15:25.933Z,24.80
2018-08-04T22:17:54.667Z,24.70
2018-08-04T22:20:23.861Z,24.70
2018-08-04T22:22:52.721Z,24.60
2018-08-04T22:25:29.552Z,24.60
2018-08-04T22:27:58.813Z,24.60
2018-08-04T22:30:27.473Z,24.60
2018-08-04T22:32:56.117Z,24.50
2018-08-04T22:35:24.715Z,24.40
2018-08-04T22:37:53.443Z,24.30
2018-08-04T22:40:22.341Z,24.20
2018-08-04T22:42:51.016Z,24.10
2018-08-04T22:45:58.252Z,24.10
2018-08-04T22:48:26.917Z,24.00
2018-08-04T22:50:55.841Z,23.90
2018-08-04T22:53:24.499Z,23.90
2018-08-04T22:55:53.146Z,23.80
2018-08-04T22:58:21.832Z,23.80
2018-08-04T23:00:50.780Z,23.70
2018-08-04T23:03:19.423Z,23.70
2018-08-04T23:05:48.117Z,23.70
2018-08-04T23:08:16.791Z,23.70
2018-08-04T23:10:45.557Z,23.70
2018-08-04T23:13:14.825Z,23.70
2018-08-04T23:15:43.703Z,23.70
2018-08-04T23:18:12.703Z,23.60
2018-08-04T23:20:41.746Z,23.50
2018-08-04T23:23:11.453Z,23.50
2018-08-04T23:25:40.075Z,23.50
2018-08-04T23:28:08.971Z,23.50
2018-08-04T23:30:37.625Z,23.40
2018-08-04T23:33:06.368Z,23.40
2018-08-04T23:35:35.109Z,23.40
2018-08-04T23:38:03.712Z,23.30
2018-08-04T23:40:32.295Z,23.20
2018-08-04T23:43:00.942Z,23.20
2018-08-04T23:45:29.676Z,23.10
2018-08-04T23:47:58.337Z,23.00
2018-08-04T23:50:26.969Z,22.90
2018-08-04T23:52:55.551Z,22.90
2018-08-04T23:55:24.296Z,22.90
2018-08-04T23:57:52.951Z,22.80
